PWSweather.com
Personal Weather Stations
Station Observations
2450ARBOR
Round Rock, TX 78681

Round Rock, TX 78681

Lat: 30.535239, Lon: -97.728137

Elevation: 800

Station Type:

High Low Average
Temperature 43.7°F6.5°C 42.8°F6.0°C 43.2°F6.2°C
Dew Point 43.2°F6.2°C 41.7°F5.4°C 42.5°F5.8°C
Winds 2.7 mph 4.3 kmh Calm Calm Calm SCalm S
Wind Gusts 2.7 mph4.3 kmh -- 1.0 mph1.6 kmh
Humidity 98% 94% 97%
Pressure 29.25 in990.5 mb 29.18 in988.1 mb -
Precipitation 1.58 in40.1 mm - -
Hour Temp Dew Point Humidity Winds Wind Gusts Pressure Precip Precip Rate Daily Precip Total
06:28 PM 43.3°F6.3°C 41.7°F5.4°C 94% Calm Calm -- 29.21 in989.2 mb 0.60 in15.2 mm 1.29 in32.8 mm 0.60 in15.2 mm
06:29 PM 43.3°F6.3°C 41.7°F5.4°C 94% Calm Calm -- 29.21 in989.2 mb 0.60 in15.2 mm 0.00 in0.0 mm 0.60 in15.2 mm
06:30 PM 43.3°F6.3°C 42.0°F5.6°C 95% 1.7 mph SSW2.7 kmh SSW 1.7 mph2.7 kmh 29.21 in989.2 mb 0.60 in15.2 mm 0.00 in0.0 mm 0.60 in15.2 mm
06:31 PM 43.3°F6.3°C 42.0°F5.6°C 95% Calm Calm 1.7 mph2.7 kmh 29.21 in989.2 mb 0.61 in15.5 mm 0.60 in15.2 mm 0.61 in15.5 mm
06:32 PM 43.3°F6.3°C 42.0°F5.6°C 95% Calm Calm 1.7 mph2.7 kmh 29.21 in989.2 mb 0.62 in15.7 mm 0.60 in15.2 mm 0.62 in15.7 mm
06:33 PM 43.3°F6.3°C 42.0°F5.6°C 95% Calm Calm 1.7 mph2.7 kmh 29.21 in989.2 mb 0.62 in15.7 mm 0.00 in0.0 mm 0.62 in15.7 mm
06:34 PM 43.3°F6.3°C 42.0°F5.6°C 95% Calm Calm 1.7 mph2.7 kmh 29.21 in989.2 mb 0.63 in16.0 mm 0.60 in15.2 mm 0.63 in16.0 mm
06:35 PM 43.3°F6.3°C 42.0°F5.6°C 95% Calm Calm 1.7 mph2.7 kmh 29.21 in989.2 mb 0.64 in16.3 mm 0.60 in15.2 mm 0.64 in16.3 mm
06:36 PM 43.3°F6.3°C 42.0°F5.6°C 95% 2.2 mph SSW3.5 kmh SSW 2.2 mph3.5 kmh 29.21 in989.2 mb 0.64 in16.3 mm 0.00 in0.0 mm 0.64 in16.3 mm
06:37 PM 43.3°F6.3°C 42.0°F5.6°C 95% Calm Calm 2.2 mph3.5 kmh 29.21 in989.2 mb 0.64 in16.3 mm 0.00 in0.0 mm 0.64 in16.3 mm
06:38 PM 43.3°F6.3°C 42.0°F5.6°C 95% Calm Calm 2.2 mph3.5 kmh 29.21 in989.2 mb 0.65 in16.5 mm 0.60 in15.2 mm 0.65 in16.5 mm
06:39 PM 43.3°F6.3°C 42.0°F5.6°C 95% Calm Calm 2.2 mph3.5 kmh 29.19 in988.5 mb 0.66 in16.8 mm 0.60 in15.2 mm 0.66 in16.8 mm
06:40 PM 43.3°F6.3°C 42.0°F5.6°C 95% Calm Calm 2.2 mph3.5 kmh 29.19 in988.5 mb 0.66 in16.8 mm 0.00 in0.0 mm 0.66 in16.8 mm
06:41 PM 43.3°F6.3°C 42.0°F5.6°C 95% Calm Calm 2.2 mph3.5 kmh 29.19 in988.5 mb 0.66 in16.8 mm 0.00 in0.0 mm 0.66 in16.8 mm
06:42 PM 43.3°F6.3°C 42.0°F5.6°C 95% Calm Calm 2.2 mph3.5 kmh 29.19 in988.5 mb 0.67 in17.0 mm 0.60 in15.2 mm 0.67 in17.0 mm
06:43 PM 43.3°F6.3°C 42.0°F5.6°C 95% Calm Calm 2.2 mph3.5 kmh 29.19 in988.5 mb 0.68 in17.3 mm 0.60 in15.2 mm 0.68 in17.3 mm
06:44 PM 43.3°F6.3°C 42.0°F5.6°C 95% 1.7 mph SSW2.7 kmh SSW 2.2 mph3.5 kmh 29.19 in988.5 mb 0.68 in17.3 mm 0.00 in0.0 mm 0.68 in17.3 mm
06:45 PM 43.2°F6.2°C 41.9°F5.5°C 95% 1.7 mph S2.7 kmh S 2.2 mph3.5 kmh 29.19 in988.5 mb 0.68 in17.3 mm 0.00 in0.0 mm 0.68 in17.3 mm
06:46 PM 43.2°F6.2°C 41.9°F5.5°C 95% Calm Calm 1.7 mph2.7 kmh 29.19 in988.5 mb 0.69 in17.5 mm 0.60 in15.2 mm 0.69 in17.5 mm
06:47 PM 43.2°F6.2°C 41.9°F5.5°C 95% Calm Calm 1.7 mph2.7 kmh 29.19 in988.5 mb 0.69 in17.5 mm 0.00 in0.0 mm 0.69 in17.5 mm
06:48 PM 43.2°F6.2°C 41.9°F5.5°C 95% Calm Calm 1.7 mph2.7 kmh 29.19 in988.5 mb 0.70 in17.8 mm 0.60 in15.2 mm 0.70 in17.8 mm
06:49 PM 43.2°F6.2°C 41.9°F5.5°C 95% Calm Calm 1.7 mph2.7 kmh 29.19 in988.5 mb 0.72 in18.3 mm 1.20 in30.5 mm 0.72 in18.3 mm
06:50 PM 43.2°F6.2°C 41.9°F5.5°C 95% Calm Calm 1.7 mph2.7 kmh 29.19 in988.5 mb 0.72 in18.3 mm 0.00 in0.0 mm 0.72 in18.3 mm
06:51 PM 43.2°F6.2°C 42.1°F5.6°C 96% Calm Calm 1.7 mph2.7 kmh 29.19 in988.5 mb 0.73 in18.5 mm 0.60 in15.2 mm 0.73 in18.5 mm
06:52 PM 43.2°F6.2°C 42.1°F5.6°C 96% Calm Calm 1.7 mph2.7 kmh 29.20 in988.8 mb 0.74 in18.8 mm 0.60 in15.2 mm 0.74 in18.8 mm
06:53 PM 43.2°F6.2°C 42.1°F5.6°C 96% Calm Calm 1.7 mph2.7 kmh 29.20 in988.8 mb 0.74 in18.8 mm 0.00 in0.0 mm 0.74 in18.8 mm
06:54 PM 43.2°F6.2°C 42.1°F5.6°C 96% Calm Calm 1.7 mph2.7 kmh 29.20 in988.8 mb 0.75 in19.1 mm 0.60 in15.2 mm 0.75 in19.1 mm
06:55 PM 43.2°F6.2°C 42.1°F5.6°C 96% Calm Calm 1.7 mph2.7 kmh 29.20 in988.8 mb 0.76 in19.3 mm 0.60 in15.2 mm 0.76 in19.3 mm
06:56 PM 43.2°F6.2°C 42.1°F5.6°C 96% Calm Calm 1.1 mph1.8 kmh 29.20 in988.8 mb 0.76 in19.3 mm 0.00 in0.0 mm 0.76 in19.3 mm
06:57 PM 43.2°F6.2°C 42.1°F5.6°C 96% Calm Calm 1.1 mph1.8 kmh 29.20 in988.8 mb 0.77 in19.6 mm 0.60 in15.2 mm 0.77 in19.6 mm
06:58 PM 43.2°F6.2°C 42.1°F5.6°C 96% Calm Calm 1.1 mph1.8 kmh 29.20 in988.8 mb 0.77 in19.6 mm 0.00 in0.0 mm 0.77 in19.6 mm
06:59 PM 43.2°F6.2°C 42.1°F5.6°C 96% Calm Calm 1.1 mph1.8 kmh 29.20 in988.8 mb 0.78 in19.8 mm 0.60 in15.2 mm 0.78 in19.8 mm
07:00 PM 43.2°F6.2°C 42.1°F5.6°C 96% Calm Calm 1.1 mph1.8 kmh 29.20 in988.8 mb 0.80 in20.3 mm 0.02 in0.5 mm 0.80 in20.3 mm
07:01 PM 43.2°F6.2°C 42.1°F5.6°C 96% Calm Calm 1.1 mph1.8 kmh 29.20 in988.8 mb 0.81 in20.6 mm 0.60 in15.2 mm 0.81 in20.6 mm
07:02 PM 43.2°F6.2°C 42.1°F5.6°C 96% Calm Calm 1.1 mph1.8 kmh 29.20 in988.8 mb 0.84 in21.3 mm 1.80 in45.7 mm 0.84 in21.3 mm
07:03 PM 43.2°F6.2°C 42.1°F5.6°C 96% Calm Calm -- 29.18 in988.1 mb 0.85 in21.6 mm 0.60 in15.2 mm 0.85 in21.6 mm
07:04 PM 43.2°F6.2°C 42.1°F5.6°C 96% Calm Calm -- 29.18 in988.1 mb 0.86 in21.8 mm 0.60 in15.2 mm 0.86 in21.8 mm
07:05 PM 43.2°F6.2°C 42.1°F5.6°C 96% Calm Calm -- 29.18 in988.1 mb 0.87 in22.1 mm 0.60 in15.2 mm 0.87 in22.1 mm
07:06 PM 43.2°F6.2°C 42.1°F5.6°C 96% Calm Calm -- 29.18 in988.1 mb 0.89 in22.6 mm 1.20 in30.5 mm 0.89 in22.6 mm
07:07 PM 43.0°F6.1°C 41.9°F5.5°C 96% Calm Calm -- 29.18 in988.1 mb 0.90 in22.9 mm 0.60 in15.2 mm 0.90 in22.9 mm
07:08 PM 42.8°F6.0°C 41.7°F5.4°C 96% Calm Calm -- 29.18 in988.1 mb 0.90 in22.9 mm 0.00 in0.0 mm 0.90 in22.9 mm
07:09 PM 42.8°F6.0°C 41.7°F5.4°C 96% Calm Calm -- 29.18 in988.1 mb 0.90 in22.9 mm 0.00 in0.0 mm 0.90 in22.9 mm
07:10 PM 42.8°F6.0°C 41.7°F5.4°C 96% Calm Calm -- 29.18 in988.1 mb 0.91 in23.1 mm 0.60 in15.2 mm 0.91 in23.1 mm
07:11 PM 42.8°F6.0°C 41.7°F5.4°C 96% Calm Calm -- 29.18 in988.1 mb 0.92 in23.4 mm 0.60 in15.2 mm 0.92 in23.4 mm
07:12 PM 42.8°F6.0°C 41.7°F5.4°C 96% Calm Calm 1.7 mph2.7 kmh 29.18 in988.1 mb 0.92 in23.4 mm 0.00 in0.0 mm 0.92 in23.4 mm
07:13 PM 42.8°F6.0°C 41.7°F5.4°C 96% Calm Calm 1.7 mph2.7 kmh 29.18 in988.1 mb 0.92 in23.4 mm 0.00 in0.0 mm 0.92 in23.4 mm
07:14 PM 42.8°F6.0°C 41.7°F5.4°C 96% Calm Calm 1.7 mph2.7 kmh 29.18 in988.1 mb 0.92 in23.4 mm 0.00 in0.0 mm 0.92 in23.4 mm
07:15 PM 42.8°F6.0°C 41.7°F5.4°C 96% Calm Calm 1.7 mph2.7 kmh 29.21 in989.2 mb 0.92 in23.4 mm 0.00 in0.0 mm 0.92 in23.4 mm
07:16 PM 42.8°F6.0°C 41.7°F5.4°C 96% Calm Calm 1.7 mph2.7 kmh 29.21 in989.2 mb 0.94 in23.9 mm 1.20 in30.5 mm 0.94 in23.9 mm
07:17 PM 42.8°F6.0°C 41.7°F5.4°C 96% Calm Calm 1.7 mph2.7 kmh 29.21 in989.2 mb 0.95 in24.1 mm 0.60 in15.2 mm 0.95 in24.1 mm
07:18 PM 42.8°F6.0°C 41.7°F5.4°C 96% Calm Calm 1.7 mph2.7 kmh 29.21 in989.2 mb 0.95 in24.1 mm 0.00 in0.0 mm 0.95 in24.1 mm
07:19 PM 42.8°F6.0°C 41.7°F5.4°C 96% Calm Calm 1.7 mph2.7 kmh 29.21 in989.2 mb 0.97 in24.6 mm 1.20 in30.5 mm 0.97 in24.6 mm
07:20 PM 42.8°F6.0°C 41.7°F5.4°C 96% Calm Calm 1.7 mph2.7 kmh 29.21 in989.2 mb 0.98 in24.9 mm 0.60 in15.2 mm 0.98 in24.9 mm
07:21 PM 42.8°F6.0°C 41.7°F5.4°C 96% Calm Calm 1.7 mph2.7 kmh 29.21 in989.2 mb 0.99 in25.1 mm 0.60 in15.2 mm 0.99 in25.1 mm
07:22 PM 42.8°F6.0°C 41.7°F5.4°C 96% Calm Calm 1.7 mph2.7 kmh 29.21 in989.2 mb 1.00 in25.4 mm 0.60 in15.2 mm 1.00 in25.4 mm
07:23 PM 42.8°F6.0°C 41.7°F5.4°C 96% Calm Calm 1.7 mph2.7 kmh 29.21 in989.2 mb 1.00 in25.4 mm 0.00 in0.0 mm 1.00 in25.4 mm
07:24 PM 43.0°F6.1°C 41.9°F5.5°C 96% Calm Calm -- 29.21 in989.2 mb 1.01 in25.7 mm 0.60 in15.2 mm 1.01 in25.7 mm
07:25 PM 43.0°F6.1°C 41.9°F5.5°C 96% Calm Calm -- 29.21 in989.2 mb 1.02 in25.9 mm 0.60 in15.2 mm 1.02 in25.9 mm
07:26 PM 43.0°F6.1°C 41.9°F5.5°C 96% Calm Calm -- 29.21 in989.2 mb 1.02 in25.9 mm 0.00 in0.0 mm 1.02 in25.9 mm
07:27 PM 43.0°F6.1°C 41.9°F5.5°C 96% Calm Calm -- 29.20 in988.8 mb 1.03 in26.2 mm 0.60 in15.2 mm 1.03 in26.2 mm
07:28 PM 43.0°F6.1°C 41.9°F5.5°C 96% Calm Calm -- 29.20 in988.8 mb 1.04 in26.4 mm 0.60 in15.2 mm 1.04 in26.4 mm
07:29 PM 43.0°F6.1°C 41.9°F5.5°C 96% Calm Calm -- 29.20 in988.8 mb 0.44 in11.2 mm 0.00 in0.0 mm 1.04 in26.4 mm
07:30 PM 43.0°F6.1°C 42.2°F5.7°C 97% Calm Calm -- 29.20 in988.8 mb 0.45 in11.4 mm 0.60 in15.2 mm 1.05 in26.7 mm
07:31 PM 43.0°F6.1°C 42.2°F5.7°C 97% Calm Calm -- 29.20 in988.8 mb 0.45 in11.4 mm 0.00 in0.0 mm 1.06 in26.9 mm
07:32 PM 43.0°F6.1°C 42.2°F5.7°C 97% Calm Calm -- 29.20 in988.8 mb 0.44 in11.2 mm 0.00 in0.0 mm 1.06 in26.9 mm
07:33 PM 43.0°F6.1°C 42.2°F5.7°C 97% Calm Calm -- 29.20 in988.8 mb 0.45 in11.4 mm 0.60 in15.2 mm 1.07 in27.2 mm
07:34 PM 43.0°F6.1°C 42.2°F5.7°C 97% Calm Calm -- 29.20 in988.8 mb 0.45 in11.4 mm 0.00 in0.0 mm 1.08 in27.4 mm
07:35 PM 43.0°F6.1°C 42.2°F5.7°C 97% Calm Calm -- 29.20 in988.8 mb 0.45 in11.4 mm 0.00 in0.0 mm 1.09 in27.7 mm
07:36 PM 43.0°F6.1°C 42.2°F5.7°C 97% 1.7 mph S2.7 kmh S 1.7 mph2.7 kmh 29.20 in988.8 mb 0.45 in11.4 mm 0.00 in0.0 mm 1.09 in27.7 mm
07:37 PM 43.0°F6.1°C 42.2°F5.7°C 97% 1.1 mph S1.8 kmh S 1.7 mph2.7 kmh 29.20 in988.8 mb 0.46 in11.7 mm 0.60 in15.2 mm 1.10 in27.9 mm
07:38 PM 43.0°F6.1°C 42.2°F5.7°C 97% 1.7 mph SSW2.7 kmh SSW 1.7 mph2.7 kmh 29.20 in988.8 mb 0.45 in11.4 mm 0.00 in0.0 mm 1.10 in27.9 mm
07:39 PM 43.0°F6.1°C 42.2°F5.7°C 97% Calm Calm 1.7 mph2.7 kmh 29.21 in989.2 mb 0.44 in11.2 mm 0.00 in0.0 mm 1.10 in27.9 mm
07:40 PM 43.0°F6.1°C 42.2°F5.7°C 97% Calm Calm 1.7 mph2.7 kmh 29.21 in989.2 mb 0.44 in11.2 mm 0.00 in0.0 mm 1.10 in27.9 mm
07:41 PM 43.0°F6.1°C 42.2°F5.7°C 97% Calm Calm 1.7 mph2.7 kmh 29.21 in989.2 mb 0.45 in11.4 mm 0.60 in15.2 mm 1.11 in28.2 mm
07:42 PM 43.0°F6.1°C 42.2°F5.7°C 97% 1.1 mph SSW1.8 kmh SSW 1.7 mph2.7 kmh 29.21 in989.2 mb 0.45 in11.4 mm 0.00 in0.0 mm 1.12 in28.4 mm
07:43 PM 43.0°F6.1°C 42.2°F5.7°C 97% 2.2 mph S3.5 kmh S 2.2 mph3.5 kmh 29.21 in989.2 mb 0.44 in11.2 mm 0.00 in0.0 mm 1.12 in28.4 mm
07:44 PM 43.0°F6.1°C 42.2°F5.7°C 97% Calm Calm 2.2 mph3.5 kmh 29.21 in989.2 mb 0.44 in11.2 mm 0.00 in0.0 mm 1.12 in28.4 mm
07:45 PM 43.0°F6.1°C 42.2°F5.7°C 97% 1.7 mph S2.7 kmh S 2.2 mph3.5 kmh 29.21 in989.2 mb 0.45 in11.4 mm 0.60 in15.2 mm 1.13 in28.7 mm
07:46 PM 43.0°F6.1°C 42.2°F5.7°C 97% Calm Calm 2.2 mph3.5 kmh 29.21 in989.2 mb 0.45 in11.4 mm 0.00 in0.0 mm 1.13 in28.7 mm
07:47 PM 43.0°F6.1°C 42.2°F5.7°C 97% Calm Calm 2.2 mph3.5 kmh 29.21 in989.2 mb 0.45 in11.4 mm 0.00 in0.0 mm 1.14 in29.0 mm
07:48 PM 43.0°F6.1°C 42.2°F5.7°C 97% Calm Calm 2.2 mph3.5 kmh 29.21 in989.2 mb 0.44 in11.2 mm 0.00 in0.0 mm 1.14 in29.0 mm
07:49 PM 43.0°F6.1°C 42.2°F5.7°C 97% Calm Calm 2.2 mph3.5 kmh 29.21 in989.2 mb 0.43 in10.9 mm 0.00 in0.0 mm 1.14 in29.0 mm
07:50 PM 43.0°F6.1°C 42.2°F5.7°C 97% Calm Calm 2.2 mph3.5 kmh 29.21 in989.2 mb 0.43 in10.9 mm 0.00 in0.0 mm 1.15 in29.2 mm
07:51 PM 43.0°F6.1°C 42.2°F5.7°C 97% Calm Calm 2.2 mph3.5 kmh 29.22 in989.5 mb 0.43 in10.9 mm 0.00 in0.0 mm 1.16 in29.5 mm
07:52 PM 43.0°F6.1°C 42.2°F5.7°C 97% Calm Calm 2.2 mph3.5 kmh 29.22 in989.5 mb 0.42 in10.7 mm 0.00 in0.0 mm 1.16 in29.5 mm
07:53 PM 43.0°F6.1°C 42.2°F5.7°C 97% Calm Calm 1.7 mph2.7 kmh 29.22 in989.5 mb 0.42 in10.7 mm 0.00 in0.0 mm 1.16 in29.5 mm
07:54 PM 43.0°F6.1°C 42.2°F5.7°C 97% Calm Calm 1.7 mph2.7 kmh 29.22 in989.5 mb 0.41 in10.4 mm 0.00 in0.0 mm 1.16 in29.5 mm
07:55 PM 43.0°F6.1°C 42.2°F5.7°C 97% Calm Calm 1.7 mph2.7 kmh 29.22 in989.5 mb 0.40 in10.2 mm 0.00 in0.0 mm 1.16 in29.5 mm
07:56 PM 43.0°F6.1°C 42.2°F5.7°C 97% Calm Calm 1.7 mph2.7 kmh 29.22 in989.5 mb 0.41 in10.4 mm 0.60 in15.2 mm 1.17 in29.7 mm
07:57 PM 43.0°F6.1°C 42.2°F5.7°C 97% Calm Calm 1.1 mph1.8 kmh 29.22 in989.5 mb 0.41 in10.4 mm 0.00 in0.0 mm 1.17 in29.7 mm
07:58 PM 43.0°F6.1°C 42.2°F5.7°C 97% Calm Calm 1.1 mph1.8 kmh 29.22 in989.5 mb 0.41 in10.4 mm 0.00 in0.0 mm 1.18 in30.0 mm
07:59 PM 43.0°F6.1°C 42.2°F5.7°C 97% Calm Calm 1.1 mph1.8 kmh 29.22 in989.5 mb 0.40 in10.2 mm 0.00 in0.0 mm 1.18 in30.0 mm
08:00 PM 43.0°F6.1°C 42.2°F5.7°C 97% Calm Calm -- 29.22 in989.5 mb 0.39 in9.9 mm 0.00 in0.0 mm 1.18 in30.0 mm
08:01 PM 43.0°F6.1°C 42.2°F5.7°C 97% Calm Calm -- 29.22 in989.5 mb 0.38 in9.7 mm 0.00 in0.0 mm 1.19 in30.2 mm
08:02 PM 43.0°F6.1°C 42.2°F5.7°C 97% Calm Calm -- 29.22 in989.5 mb 0.35 in8.9 mm 0.00 in0.0 mm 1.19 in30.2 mm
08:03 PM 43.0°F6.1°C 42.2°F5.7°C 97% Calm Calm -- 29.19 in988.5 mb 0.35 in8.9 mm 0.00 in0.0 mm 1.19 in30.2 mm
08:04 PM 43.0°F6.1°C 42.2°F5.7°C 97% Calm Calm -- 29.19 in988.5 mb 0.34 in8.6 mm 0.00 in0.0 mm 1.20 in30.5 mm
08:05 PM 43.0°F6.1°C 42.2°F5.7°C 97% Calm Calm -- 29.19 in988.5 mb 0.35 in8.9 mm 0.60 in15.2 mm 1.21 in30.7 mm
08:06 PM 43.0°F6.1°C 42.2°F5.7°C 97% Calm Calm -- 29.19 in988.5 mb 0.34 in8.6 mm 0.00 in0.0 mm 1.22 in31.0 mm
08:07 PM 43.0°F6.1°C 42.2°F5.7°C 97% 2.2 mph SSW3.5 kmh SSW 2.2 mph3.5 kmh 29.19 in988.5 mb 0.32 in8.1 mm 0.00 in0.0 mm 1.22 in31.0 mm
08:08 PM 43.0°F6.1°C 42.2°F5.7°C 97% 2.2 mph SSW3.5 kmh SSW 2.2 mph3.5 kmh 29.19 in988.5 mb 0.32 in8.1 mm 0.00 in0.0 mm 1.22 in31.0 mm
08:09 PM 43.0°F6.1°C 42.2°F5.7°C 97% 1.7 mph S2.7 kmh S 2.2 mph3.5 kmh 29.19 in988.5 mb 0.34 in8.6 mm 1.20 in30.5 mm 1.24 in31.5 mm
08:10 PM 43.0°F6.1°C 42.2°F5.7°C 97% 1.7 mph SSW2.7 kmh SSW 2.2 mph3.5 kmh 29.19 in988.5 mb 0.33 in8.4 mm 0.00 in0.0 mm 1.24 in31.5 mm
08:11 PM 43.0°F6.1°C 42.2°F5.7°C 97% Calm Calm 2.2 mph3.5 kmh 29.19 in988.5 mb 0.34 in8.6 mm 0.60 in15.2 mm 1.25 in31.8 mm
08:12 PM 43.0°F6.1°C 42.2°F5.7°C 97% 1.7 mph S2.7 kmh S 2.2 mph3.5 kmh 29.19 in988.5 mb 0.34 in8.6 mm 0.00 in0.0 mm 1.26 in32.0 mm
08:13 PM 43.0°F6.1°C 42.2°F5.7°C 97% Calm Calm 2.2 mph3.5 kmh 29.19 in988.5 mb 0.36 in9.1 mm 1.20 in30.5 mm 1.28 in32.5 mm
08:14 PM 43.0°F6.1°C 42.2°F5.7°C 97% Calm Calm 2.2 mph3.5 kmh 29.19 in988.5 mb 0.36 in9.1 mm 0.00 in0.0 mm 1.28 in32.5 mm
08:15 PM 43.0°F6.1°C 42.2°F5.7°C 97% Calm Calm 2.2 mph3.5 kmh 29.23 in989.8 mb 0.37 in9.4 mm 0.60 in15.2 mm 1.29 in32.8 mm
08:16 PM 43.0°F6.1°C 42.2°F5.7°C 97% Calm Calm 2.2 mph3.5 kmh 29.23 in989.8 mb 0.36 in9.1 mm 0.00 in0.0 mm 1.30 in33.0 mm
08:17 PM 43.0°F6.1°C 42.2°F5.7°C 97% 1.1 mph SSW1.8 kmh SSW 2.2 mph3.5 kmh 29.23 in989.8 mb 0.37 in9.4 mm 0.60 in15.2 mm 1.31 in33.3 mm
08:18 PM 43.0°F6.1°C 42.2°F5.7°C 97% Calm Calm 2.2 mph3.5 kmh 29.23 in989.8 mb 0.37 in9.4 mm 0.00 in0.0 mm 1.32 in33.5 mm
08:19 PM 43.0°F6.1°C 42.2°F5.7°C 97% 1.7 mph S2.7 kmh S 2.2 mph3.5 kmh 29.23 in989.8 mb 0.36 in9.1 mm 0.00 in0.0 mm 1.33 in33.8 mm
08:20 PM 42.8°F6.0°C 42.0°F5.6°C 97% 1.7 mph SSW2.7 kmh SSW 2.2 mph3.5 kmh 29.23 in989.8 mb 0.35 in8.9 mm 0.00 in0.0 mm 1.33 in33.8 mm
08:21 PM 42.8°F6.0°C 42.0°F5.6°C 97% Calm Calm 2.2 mph3.5 kmh 29.23 in989.8 mb 0.35 in8.9 mm 0.00 in0.0 mm 1.34 in34.0 mm
08:22 PM 42.8°F6.0°C 42.0°F5.6°C 97% 2.2 mph SSW3.5 kmh SSW 2.7 mph4.3 kmh 29.23 in989.8 mb 0.35 in8.9 mm 0.00 in0.0 mm 1.35 in34.3 mm
08:23 PM 42.8°F6.0°C 42.0°F5.6°C 97% 1.7 mph S2.7 kmh S 2.7 mph4.3 kmh 29.23 in989.8 mb 0.36 in9.1 mm 0.60 in15.2 mm 1.36 in34.5 mm
08:24 PM 42.8°F6.0°C 42.0°F5.6°C 97% 1.1 mph SE1.8 kmh SE 2.7 mph4.3 kmh 29.23 in989.8 mb 0.36 in9.1 mm 0.00 in0.0 mm 1.37 in34.8 mm
08:25 PM 42.8°F6.0°C 42.0°F5.6°C 97% 2.2 mph S3.5 kmh S 2.7 mph4.3 kmh 29.23 in989.8 mb 0.36 in9.1 mm 0.00 in0.0 mm 1.38 in35.1 mm
08:26 PM 42.8°F6.0°C 42.0°F5.6°C 97% Calm Calm 2.7 mph4.3 kmh 29.23 in989.8 mb 0.38 in9.7 mm 1.20 in30.5 mm 1.40 in35.6 mm
08:27 PM 42.8°F6.0°C 42.0°F5.6°C 97% 1.7 mph SSW2.7 kmh SSW 2.7 mph4.3 kmh 29.25 in990.5 mb 0.39 in9.9 mm 0.60 in15.2 mm 1.42 in36.1 mm
08:28 PM 42.8°F6.0°C 42.0°F5.6°C 97% 2.7 mph S4.3 kmh S 2.7 mph4.3 kmh 29.25 in990.5 mb 0.38 in9.7 mm 0.00 in0.0 mm 1.42 in36.1 mm
08:29 PM 42.8°F6.0°C 42.0°F5.6°C 97% 1.1 mph S1.8 kmh S 2.7 mph4.3 kmh 29.25 in990.5 mb 0.39 in9.9 mm 0.60 in15.2 mm 1.43 in36.3 mm
08:30 PM 42.8°F6.0°C 42.0°F5.6°C 97% 1.7 mph S2.7 kmh S 2.7 mph4.3 kmh 29.25 in990.5 mb 0.39 in9.9 mm 0.00 in0.0 mm 1.44 in36.6 mm
08:31 PM 42.8°F6.0°C 42.0°F5.6°C 97% Calm Calm 2.7 mph4.3 kmh 29.25 in990.5 mb 0.38 in9.7 mm 0.00 in0.0 mm 1.44 in36.6 mm
08:32 PM 42.8°F6.0°C 42.0°F5.6°C 97% Calm Calm 2.7 mph4.3 kmh 29.25 in990.5 mb 0.40 in10.2 mm 1.20 in30.5 mm 1.46 in37.1 mm
08:33 PM 42.8°F6.0°C 42.0°F5.6°C 97% Calm Calm 2.7 mph4.3 kmh 29.25 in990.5 mb 0.39 in9.9 mm 0.00 in0.0 mm 1.46 in37.1 mm
08:34 PM 42.8°F6.0°C 42.0°F5.6°C 97% 1.1 mph S1.8 kmh S 2.7 mph4.3 kmh 29.25 in990.5 mb 0.38 in9.7 mm 0.00 in0.0 mm 1.46 in37.1 mm
08:35 PM 42.8°F6.0°C 42.0°F5.6°C 97% Calm Calm 2.7 mph4.3 kmh 29.25 in990.5 mb 0.38 in9.7 mm 0.00 in0.0 mm 1.47 in37.3 mm
08:36 PM 42.8°F6.0°C 42.0°F5.6°C 97% Calm Calm 2.7 mph4.3 kmh 29.25 in990.5 mb 0.39 in9.9 mm 0.60 in15.2 mm 1.48 in37.6 mm
08:37 PM 42.8°F6.0°C 42.0°F5.6°C 97% 1.1 mph SSW1.8 kmh SSW 2.7 mph4.3 kmh 29.25 in990.5 mb 0.38 in9.7 mm 0.00 in0.0 mm 1.48 in37.6 mm
08:38 PM 42.8°F6.0°C 42.0°F5.6°C 97% Calm Calm 1.7 mph2.7 kmh 29.25 in990.5 mb 0.38 in9.7 mm 0.00 in0.0 mm 1.48 in37.6 mm
08:39 PM 42.8°F6.0°C 42.0°F5.6°C 97% Calm Calm 1.7 mph2.7 kmh 29.25 in990.5 mb 0.39 in9.9 mm 0.60 in15.2 mm 1.49 in37.8 mm
08:40 PM 42.8°F6.0°C 42.0°F5.6°C 97% Calm Calm 1.1 mph1.8 kmh 29.24 in990.2 mb 0.39 in9.9 mm 0.00 in0.0 mm 1.49 in37.8 mm
08:41 PM 42.8°F6.0°C 42.0°F5.6°C 97% Calm Calm 1.1 mph1.8 kmh 29.24 in990.2 mb 0.39 in9.9 mm 0.00 in0.0 mm 1.50 in38.1 mm
08:42 PM 42.8°F6.0°C 42.0°F5.6°C 97% Calm Calm 1.1 mph1.8 kmh 29.24 in990.2 mb 0.38 in9.7 mm 0.00 in0.0 mm 1.50 in38.1 mm
08:43 PM 42.8°F6.0°C 42.3°F5.7°C 98% Calm Calm 1.1 mph1.8 kmh 29.24 in990.2 mb 0.38 in9.7 mm 0.00 in0.0 mm 1.50 in38.1 mm
08:44 PM 42.8°F6.0°C 42.3°F5.7°C 98% Calm Calm 1.1 mph1.8 kmh 29.24 in990.2 mb 0.39 in9.9 mm 0.60 in15.2 mm 1.51 in38.4 mm
08:45 PM 42.8°F6.0°C 42.3°F5.7°C 98% Calm Calm 1.1 mph1.8 kmh 29.24 in990.2 mb 0.39 in9.9 mm 0.00 in0.0 mm 1.52 in38.6 mm
08:46 PM 42.8°F6.0°C 42.3°F5.7°C 98% Calm Calm 1.1 mph1.8 kmh 29.24 in990.2 mb 0.39 in9.9 mm 0.00 in0.0 mm 1.52 in38.6 mm
08:47 PM 42.8°F6.0°C 42.3°F5.7°C 98% Calm Calm -- 29.24 in990.2 mb 0.39 in9.9 mm 0.00 in0.0 mm 1.53 in38.9 mm
08:48 PM 43.0°F6.1°C 42.5°F5.8°C 98% Calm Calm -- 29.24 in990.2 mb 0.40 in10.2 mm 0.60 in15.2 mm 1.54 in39.1 mm
08:49 PM 43.0°F6.1°C 42.5°F5.8°C 98% Calm Calm -- 29.24 in990.2 mb 0.40 in10.2 mm 0.00 in0.0 mm 1.54 in39.1 mm
08:50 PM 43.0°F6.1°C 42.5°F5.8°C 98% Calm Calm -- 29.24 in990.2 mb 0.39 in9.9 mm 0.00 in0.0 mm 1.54 in39.1 mm
08:51 PM 43.0°F6.1°C 42.5°F5.8°C 98% 1.1 mph SSW1.8 kmh SSW 1.1 mph1.8 kmh 29.21 in989.2 mb 0.40 in10.2 mm 0.60 in15.2 mm 1.55 in39.4 mm
08:52 PM 43.0°F6.1°C 42.5°F5.8°C 98% Calm Calm 1.1 mph1.8 kmh 29.21 in989.2 mb 0.39 in9.9 mm 0.00 in0.0 mm 1.55 in39.4 mm
08:53 PM 43.0°F6.1°C 42.5°F5.8°C 98% Calm Calm 1.1 mph1.8 kmh 29.21 in989.2 mb 0.40 in10.2 mm 0.60 in15.2 mm 1.56 in39.6 mm
08:54 PM 43.0°F6.1°C 42.5°F5.8°C 98% 1.1 mph SSW1.8 kmh SSW 1.1 mph1.8 kmh 29.21 in989.2 mb 0.40 in10.2 mm 0.00 in0.0 mm 1.56 in39.6 mm
08:55 PM 43.0°F6.1°C 42.5°F5.8°C 98% Calm Calm 1.1 mph1.8 kmh 29.21 in989.2 mb 0.40 in10.2 mm 0.00 in0.0 mm 1.56 in39.6 mm
08:56 PM 42.8°F6.0°C 42.3°F5.7°C 98% Calm Calm 1.7 mph2.7 kmh 29.21 in989.2 mb 0.39 in9.9 mm 0.00 in0.0 mm 1.56 in39.6 mm
08:57 PM 42.8°F6.0°C 42.3°F5.7°C 98% Calm Calm 1.7 mph2.7 kmh 29.21 in989.2 mb 0.40 in10.2 mm 0.60 in15.2 mm 1.57 in39.9 mm
08:58 PM 42.8°F6.0°C 42.3°F5.7°C 98% Calm Calm 1.7 mph2.7 kmh 29.21 in989.2 mb 0.39 in9.9 mm 0.00 in0.0 mm 1.57 in39.9 mm
08:59 PM 42.8°F6.0°C 42.3°F5.7°C 98% Calm Calm 1.7 mph2.7 kmh 29.21 in989.2 mb 0.39 in9.9 mm 0.00 in0.0 mm 1.57 in39.9 mm
09:00 PM 42.8°F6.0°C 42.3°F5.7°C 98% Calm Calm 1.7 mph2.7 kmh 29.21 in989.2 mb 0.39 in9.9 mm 0.00 in0.0 mm 1.57 in39.9 mm
09:01 PM 42.8°F6.0°C 42.3°F5.7°C 98% Calm Calm 1.7 mph2.7 kmh 29.21 in989.2 mb 0.38 in9.7 mm 0.00 in0.0 mm 1.57 in39.9 mm
09:02 PM 42.8°F6.0°C 42.3°F5.7°C 98% Calm Calm 1.7 mph2.7 kmh 29.21 in989.2 mb 0.38 in9.7 mm 0.00 in0.0 mm 1.57 in39.9 mm
09:03 PM 42.8°F6.0°C 42.3°F5.7°C 98% Calm Calm 1.7 mph2.7 kmh 29.21 in989.2 mb 0.38 in9.7 mm 0.00 in0.0 mm 1.57 in39.9 mm
09:04 PM 42.8°F6.0°C 42.3°F5.7°C 98% Calm Calm 1.7 mph2.7 kmh 29.23 in989.8 mb 0.37 in9.4 mm 0.00 in0.0 mm 1.57 in39.9 mm
09:05 PM 42.8°F6.0°C 42.3°F5.7°C 98% Calm Calm 1.7 mph2.7 kmh 29.23 in989.8 mb 0.36 in9.1 mm 0.00 in0.0 mm 1.57 in39.9 mm
09:06 PM 42.8°F6.0°C 42.3°F5.7°C 98% Calm Calm -- 29.23 in989.8 mb 0.35 in8.9 mm 0.00 in0.0 mm 1.57 in39.9 mm
09:07 PM 42.8°F6.0°C 42.3°F5.7°C 98% Calm Calm -- 29.23 in989.8 mb 0.35 in8.9 mm 0.00 in0.0 mm 1.57 in39.9 mm
09:08 PM 42.8°F6.0°C 42.3°F5.7°C 98% Calm Calm -- 29.23 in989.8 mb 0.35 in8.9 mm 0.00 in0.0 mm 1.57 in39.9 mm
09:09 PM 42.8°F6.0°C 42.3°F5.7°C 98% Calm Calm -- 29.23 in989.8 mb 0.33 in8.4 mm 0.00 in0.0 mm 1.57 in39.9 mm
09:10 PM 42.8°F6.0°C 42.3°F5.7°C 98% Calm Calm -- 29.23 in989.8 mb 0.33 in8.4 mm 0.00 in0.0 mm 1.57 in39.9 mm
09:11 PM 42.8°F6.0°C 42.3°F5.7°C 98% Calm Calm -- 29.23 in989.8 mb 0.32 in8.1 mm 0.00 in0.0 mm 1.57 in39.9 mm
09:12 PM 42.8°F6.0°C 42.3°F5.7°C 98% Calm Calm -- 29.23 in989.8 mb 0.31 in7.9 mm 0.00 in0.0 mm 1.57 in39.9 mm
09:13 PM 42.8°F6.0°C 42.3°F5.7°C 98% Calm Calm -- 29.23 in989.8 mb 0.30 in7.6 mm 0.00 in0.0 mm 1.57 in39.9 mm
09:14 PM 42.8°F6.0°C 42.3°F5.7°C 98% Calm Calm -- 29.23 in989.8 mb 0.29 in7.4 mm 0.00 in0.0 mm 1.57 in39.9 mm
09:15 PM 42.8°F6.0°C 42.3°F5.7°C 98% Calm Calm -- 29.23 in989.8 mb 0.28 in7.1 mm 0.00 in0.0 mm 1.57 in39.9 mm
09:16 PM 42.8°F6.0°C 42.3°F5.7°C 98% Calm Calm -- 29.24 in990.2 mb 0.27 in6.9 mm 0.00 in0.0 mm 1.57 in39.9 mm
09:17 PM 42.8°F6.0°C 42.3°F5.7°C 98% Calm Calm -- 29.24 in990.2 mb 0.26 in6.6 mm 0.00 in0.0 mm 1.57 in39.9 mm
09:18 PM 42.8°F6.0°C 42.3°F5.7°C 98% Calm Calm -- 29.24 in990.2 mb 0.25 in6.4 mm 0.00 in0.0 mm 1.57 in39.9 mm
09:19 PM 42.8°F6.0°C 42.3°F5.7°C 98% Calm Calm -- 29.24 in990.2 mb 0.26 in6.6 mm 0.60 in15.2 mm 1.58 in40.1 mm
09:20 PM 42.8°F6.0°C 42.3°F5.7°C 98% Calm Calm -- 29.24 in990.2 mb 0.25 in6.4 mm 0.00 in0.0 mm 1.58 in40.1 mm
09:21 PM 43.0°F6.1°C 42.5°F5.8°C 98% Calm Calm -- 29.24 in990.2 mb 0.24 in6.1 mm 0.00 in0.0 mm 1.58 in40.1 mm
09:22 PM 43.0°F6.1°C 42.5°F5.8°C 98% Calm Calm -- 29.24 in990.2 mb 0.24 in6.1 mm 0.00 in0.0 mm 1.58 in40.1 mm
09:23 PM 43.0°F6.1°C 42.5°F5.8°C 98% Calm Calm -- 29.24 in990.2 mb 0.22 in5.6 mm 0.00 in0.0 mm 1.58 in40.1 mm
09:24 PM 43.0°F6.1°C 42.5°F5.8°C 98% Calm Calm -- 29.24 in990.2 mb 0.22 in5.6 mm 0.00 in0.0 mm 1.58 in40.1 mm
09:25 PM 43.0°F6.1°C 42.5°F5.8°C 98% Calm Calm -- 29.24 in990.2 mb 0.20 in5.1 mm 0.00 in0.0 mm 1.58 in40.1 mm
09:26 PM 43.0°F6.1°C 42.5°F5.8°C 98% Calm Calm -- 29.24 in990.2 mb 0.18 in4.6 mm 0.00 in0.0 mm 1.58 in40.1 mm
09:27 PM 43.0°F6.1°C 42.5°F5.8°C 98% Calm Calm -- 29.24 in990.2 mb 0.17 in4.3 mm 0.00 in0.0 mm 1.58 in40.1 mm
09:28 PM 43.0°F6.1°C 42.5°F5.8°C 98% Calm Calm -- 29.24 in990.2 mb 0.16 in4.1 mm 0.00 in0.0 mm 1.58 in40.1 mm
09:29 PM 43.0°F6.1°C 42.5°F5.8°C 98% Calm Calm -- 29.24 in990.2 mb 0.15 in3.8 mm 0.00 in0.0 mm 1.58 in40.1 mm
09:30 PM 43.0°F6.1°C 42.5°F5.8°C 98% Calm Calm -- 29.24 in990.2 mb 0.14 in3.6 mm 0.00 in0.0 mm 1.58 in40.1 mm
09:31 PM 43.0°F6.1°C 42.5°F5.8°C 98% Calm Calm -- 29.24 in990.2 mb 0.14 in3.6 mm 0.00 in0.0 mm 1.58 in40.1 mm
09:32 PM 43.0°F6.1°C 42.5°F5.8°C 98% Calm Calm -- 29.24 in990.2 mb 0.12 in3.0 mm 0.00 in0.0 mm 1.58 in40.1 mm
09:33 PM 43.0°F6.1°C 42.5°F5.8°C 98% Calm Calm -- 29.24 in990.2 mb 0.12 in3.0 mm 0.00 in0.0 mm 1.58 in40.1 mm
09:34 PM 43.0°F6.1°C 42.5°F5.8°C 98% Calm Calm -- 29.24 in990.2 mb 0.12 in3.0 mm 0.00 in0.0 mm 1.58 in40.1 mm
09:35 PM 43.0°F6.1°C 42.5°F5.8°C 98% Calm Calm -- 29.24 in990.2 mb 0.11 in2.8 mm 0.00 in0.0 mm 1.58 in40.1 mm
09:36 PM 43.0°F6.1°C 42.5°F5.8°C 98% Calm Calm -- 29.24 in990.2 mb 0.10 in2.5 mm 0.00 in0.0 mm 1.58 in40.1 mm
09:37 PM 43.0°F6.1°C 42.5°F5.8°C 98% Calm Calm -- 29.24 in990.2 mb 0.10 in2.5 mm 0.00 in0.0 mm 1.58 in40.1 mm
09:38 PM 43.0°F6.1°C 42.5°F5.8°C 98% Calm Calm -- 29.24 in990.2 mb 0.10 in2.5 mm 0.00 in0.0 mm 1.58 in40.1 mm
09:39 PM 43.0°F6.1°C 42.5°F5.8°C 98% Calm Calm -- 29.24 in990.2 mb 0.09 in2.3 mm 0.00 in0.0 mm 1.58 in40.1 mm
09:40 PM 43.0°F6.1°C 42.5°F5.8°C 98% Calm Calm -- 29.23 in989.8 mb 0.09 in2.3 mm 0.00 in0.0 mm 1.58 in40.1 mm
09:41 PM 43.0°F6.1°C 42.5°F5.8°C 98% Calm Calm -- 29.23 in989.8 mb 0.08 in2.0 mm 0.00 in0.0 mm 1.58 in40.1 mm
09:42 PM 43.0°F6.1°C 42.5°F5.8°C 98% Calm Calm -- 29.23 in989.8 mb 0.08 in2.0 mm 0.00 in0.0 mm 1.58 in40.1 mm
09:43 PM 43.0°F6.1°C 42.5°F5.8°C 98% Calm Calm -- 29.23 in989.8 mb 0.08 in2.0 mm 0.00 in0.0 mm 1.58 in40.1 mm
09:44 PM 43.0°F6.1°C 42.5°F5.8°C 98% Calm Calm -- 29.23 in989.8 mb 0.07 in1.8 mm 0.00 in0.0 mm 1.58 in40.1 mm
09:45 PM 43.0°F6.1°C 42.5°F5.8°C 98% Calm Calm -- 29.23 in989.8 mb 0.06 in1.5 mm 0.00 in0.0 mm 1.58 in40.1 mm
09:46 PM 43.0°F6.1°C 42.5°F5.8°C 98% Calm Calm -- 29.23 in989.8 mb 0.06 in1.5 mm 0.00 in0.0 mm 1.58 in40.1 mm
09:47 PM 43.0°F6.1°C 42.5°F5.8°C 98% Calm Calm -- 29.23 in989.8 mb 0.05 in1.3 mm 0.00 in0.0 mm 1.58 in40.1 mm
09:48 PM 43.0°F6.1°C 42.5°F5.8°C 98% Calm Calm -- 29.23 in989.8 mb 0.04 in1.0 mm 0.00 in0.0 mm 1.58 in40.1 mm
09:49 PM 43.0°F6.1°C 42.5°F5.8°C 98% Calm Calm -- 29.23 in989.8 mb 0.04 in1.0 mm 0.00 in0.0 mm 1.58 in40.1 mm
09:50 PM 43.0°F6.1°C 42.5°F5.8°C 98% Calm Calm 1.1 mph1.8 kmh 29.23 in989.8 mb 0.04 in1.0 mm 0.00 in0.0 mm 1.58 in40.1 mm
09:51 PM 43.0°F6.1°C 42.5°F5.8°C 98% Calm Calm 1.1 mph1.8 kmh 29.23 in989.8 mb 0.03 in0.8 mm 0.00 in0.0 mm 1.58 in40.1 mm
09:52 PM 43.0°F6.1°C 42.5°F5.8°C 98% Calm Calm 1.1 mph1.8 kmh 29.25 in990.5 mb 0.03 in0.8 mm 0.00 in0.0 mm 1.58 in40.1 mm
09:53 PM 43.2°F6.2°C 42.7°F5.9°C 98% Calm Calm 1.1 mph1.8 kmh 29.25 in990.5 mb 0.02 in0.5 mm 0.00 in0.0 mm 1.58 in40.1 mm
09:54 PM 43.2°F6.2°C 42.7°F5.9°C 98% Calm Calm 1.1 mph1.8 kmh 29.25 in990.5 mb 0.02 in0.5 mm 0.00 in0.0 mm 1.58 in40.1 mm
09:55 PM 43.2°F6.2°C 42.7°F5.9°C 98% Calm Calm 1.1 mph1.8 kmh 29.25 in990.5 mb 0.02 in0.5 mm 0.00 in0.0 mm 1.58 in40.1 mm
09:56 PM 43.3°F6.3°C 42.8°F6.0°C 98% Calm Calm 1.1 mph1.8 kmh 29.25 in990.5 mb 0.02 in0.5 mm 0.00 in0.0 mm 1.58 in40.1 mm
09:57 PM 43.3°F6.3°C 42.8°F6.0°C 98% Calm Calm 1.1 mph1.8 kmh 29.25 in990.5 mb 0.01 in0.3 mm 0.00 in0.0 mm 1.58 in40.1 mm
09:58 PM 43.3°F6.3°C 42.8°F6.0°C 98% Calm Calm 1.1 mph1.8 kmh 29.25 in990.5 mb 0.01 in0.3 mm 0.00 in0.0 mm 1.58 in40.1 mm
09:59 PM 43.3°F6.3°C 42.8°F6.0°C 98% Calm Calm 1.1 mph1.8 kmh 29.25 in990.5 mb 0.01 in0.3 mm 0.00 in0.0 mm 1.58 in40.1 mm
10:00 PM 43.3°F6.3°C 42.8°F6.0°C 98% Calm Calm -- 29.25 in990.5 mb 0.01 in0.3 mm 0.00 in0.0 mm 1.58 in40.1 mm
10:01 PM 43.3°F6.3°C 42.8°F6.0°C 98% Calm Calm -- 29.25 in990.5 mb 0.01 in0.3 mm 0.00 in0.0 mm 1.58 in40.1 mm
10:02 PM 43.3°F6.3°C 42.8°F6.0°C 98% Calm Calm -- 29.25 in990.5 mb 0.01 in0.3 mm 0.00 in0.0 mm 1.58 in40.1 mm
10:03 PM 43.3°F6.3°C 42.8°F6.0°C 98% Calm Calm -- 29.25 in990.5 mb 0.01 in0.3 mm 0.00 in0.0 mm 1.58 in40.1 mm
10:04 PM 43.3°F6.3°C 42.8°F6.0°C 98% Calm Calm -- 29.24 in990.2 mb 0.01 in0.3 mm 0.00 in0.0 mm 1.58 in40.1 mm
10:05 PM 43.3°F6.3°C 42.8°F6.0°C 98% Calm Calm -- 29.24 in990.2 mb 0.01 in0.3 mm 0.00 in0.0 mm 1.58 in40.1 mm
10:06 PM 43.3°F6.3°C 42.8°F6.0°C 98% Calm Calm -- 29.24 in990.2 mb 0.01 in0.3 mm 0.00 in0.0 mm 1.58 in40.1 mm
10:07 PM 43.3°F6.3°C 42.8°F6.0°C 98% Calm Calm -- 29.24 in990.2 mb 0.01 in0.3 mm 0.00 in0.0 mm 1.58 in40.1 mm
10:08 PM 43.3°F6.3°C 42.8°F6.0°C 98% Calm Calm -- 29.24 in990.2 mb 0.01 in0.3 mm 0.00 in0.0 mm 1.58 in40.1 mm
10:09 PM 43.3°F6.3°C 42.8°F6.0°C 98% Calm Calm -- 29.24 in990.2 mb 0.01 in0.3 mm 0.00 in0.0 mm 1.58 in40.1 mm
10:10 PM 43.3°F6.3°C 42.8°F6.0°C 98% Calm Calm -- 29.24 in990.2 mb 0.01 in0.3 mm 0.00 in0.0 mm 1.58 in40.1 mm
10:11 PM 43.3°F6.3°C 42.8°F6.0°C 98% Calm Calm -- 29.24 in990.2 mb 0.01 in0.3 mm 0.00 in0.0 mm 1.58 in40.1 mm
10:12 PM 43.3°F6.3°C 42.8°F6.0°C 98% Calm Calm -- 29.24 in990.2 mb 0.01 in0.3 mm 0.00 in0.0 mm 1.58 in40.1 mm
10:13 PM 43.3°F6.3°C 42.8°F6.0°C 98% Calm Calm -- 29.24 in990.2 mb 0.01 in0.3 mm 0.00 in0.0 mm 1.58 in40.1 mm
10:14 PM 43.3°F6.3°C 42.8°F6.0°C 98% Calm Calm -- 29.24 in990.2 mb 0.01 in0.3 mm 0.00 in0.0 mm 1.58 in40.1 mm
10:15 PM 43.3°F6.3°C 42.8°F6.0°C 98% Calm Calm -- 29.24 in990.2 mb 0.01 in0.3 mm 0.00 in0.0 mm 1.58 in40.1 mm
10:16 PM 43.3°F6.3°C 42.8°F6.0°C 98% Calm Calm -- 29.22 in989.5 mb 0.01 in0.3 mm 0.00 in0.0 mm 1.58 in40.1 mm
10:17 PM 43.3°F6.3°C 42.8°F6.0°C 98% Calm Calm -- 29.22 in989.5 mb 0.01 in0.3 mm 0.00 in0.0 mm 1.58 in40.1 mm
10:18 PM 43.3°F6.3°C 42.8°F6.0°C 98% Calm Calm -- 29.22 in989.5 mb 0.01 in0.3 mm 0.00 in0.0 mm 1.58 in40.1 mm
10:19 PM 43.3°F6.3°C 42.8°F6.0°C 98% Calm Calm -- 29.22 in989.5 mb 0.00 in0.0 mm 0.00 in0.0 mm 1.58 in40.1 mm
10:20 PM 43.3°F6.3°C 42.8°F6.0°C 98% Calm Calm -- 29.22 in989.5 mb 0.00 in0.0 mm 0.00 in0.0 mm 1.58 in40.1 mm
10:21 PM 43.3°F6.3°C 42.8°F6.0°C 98% Calm Calm -- 29.22 in989.5 mb 0.00 in0.0 mm 0.00 in0.0 mm 1.58 in40.1 mm
10:22 PM 43.3°F6.3°C 42.8°F6.0°C 98% Calm Calm -- 29.22 in989.5 mb 0.00 in0.0 mm 0.00 in0.0 mm 1.58 in40.1 mm
10:23 PM 43.3°F6.3°C 42.8°F6.0°C 98% Calm Calm -- 29.22 in989.5 mb 0.00 in0.0 mm 0.00 in0.0 mm 1.58 in40.1 mm
10:24 PM 43.3°F6.3°C 42.8°F6.0°C 98% Calm Calm -- 29.22 in989.5 mb 0.00 in0.0 mm 0.00 in0.0 mm 1.58 in40.1 mm
10:25 PM 43.3°F6.3°C 42.8°F6.0°C 98% Calm Calm -- 29.22 in989.5 mb 0.00 in0.0 mm 0.00 in0.0 mm 1.58 in40.1 mm
10:26 PM 43.3°F6.3°C 42.8°F6.0°C 98% Calm Calm -- 29.22 in989.5 mb 0.00 in0.0 mm 0.00 in0.0 mm 1.58 in40.1 mm
10:27 PM 43.3°F6.3°C 42.8°F6.0°C 98% Calm Calm -- 29.22 in989.5 mb 0.00 in0.0 mm 0.00 in0.0 mm 1.58 in40.1 mm
10:28 PM 43.3°F6.3°C 42.8°F6.0°C 98% Calm Calm -- 29.22 in989.5 mb 0.00 in0.0 mm 0.00 in0.0 mm 1.58 in40.1 mm
10:29 PM 43.3°F6.3°C 42.8°F6.0°C 98% Calm Calm -- 29.22 in989.5 mb 0.00 in0.0 mm 0.00 in0.0 mm 1.58 in40.1 mm
10:30 PM 43.3°F6.3°C 42.8°F6.0°C 98% Calm Calm -- 29.22 in989.5 mb 0.00 in0.0 mm 0.00 in0.0 mm 1.58 in40.1 mm
10:31 PM 43.3°F6.3°C 42.8°F6.0°C 98% Calm Calm -- 29.22 in989.5 mb 0.00 in0.0 mm 0.00 in0.0 mm 1.58 in40.1 mm
10:32 PM 43.3°F6.3°C 42.8°F6.0°C 98% Calm Calm -- 29.22 in989.5 mb 0.00 in0.0 mm 0.00 in0.0 mm 1.58 in40.1 mm
10:33 PM 43.3°F6.3°C 42.8°F6.0°C 98% Calm Calm -- 29.22 in989.5 mb 0.00 in0.0 mm 0.00 in0.0 mm 1.58 in40.1 mm
10:34 PM 43.3°F6.3°C 42.8°F6.0°C 98% Calm Calm -- 29.22 in989.5 mb 0.00 in0.0 mm 0.00 in0.0 mm 1.58 in40.1 mm
10:35 PM 43.3°F6.3°C 42.8°F6.0°C 98% Calm Calm -- 29.22 in989.5 mb 0.00 in0.0 mm 0.00 in0.0 mm 1.58 in40.1 mm
10:36 PM 43.3°F6.3°C 42.8°F6.0°C 98% Calm Calm -- 29.22 in989.5 mb 0.00 in0.0 mm 0.00 in0.0 mm 1.58 in40.1 mm
10:37 PM 43.3°F6.3°C 42.8°F6.0°C 98% Calm Calm -- 29.22 in989.5 mb 0.00 in0.0 mm 0.00 in0.0 mm 1.58 in40.1 mm
10:38 PM 43.3°F6.3°C 42.8°F6.0°C 98% Calm Calm -- 29.22 in989.5 mb 0.00 in0.0 mm 0.00 in0.0 mm 1.58 in40.1 mm
10:39 PM 43.3°F6.3°C 42.8°F6.0°C 98% Calm Calm -- 29.22 in989.5 mb 0.00 in0.0 mm 0.00 in0.0 mm 1.58 in40.1 mm
10:40 PM 43.3°F6.3°C 42.8°F6.0°C 98% Calm Calm -- 29.22 in989.5 mb 0.00 in0.0 mm 0.00 in0.0 mm 1.58 in40.1 mm
10:41 PM 43.3°F6.3°C 42.8°F6.0°C 98% Calm Calm -- 29.22 in989.5 mb 0.00 in0.0 mm 0.00 in0.0 mm 1.58 in40.1 mm
10:42 PM 43.3°F6.3°C 42.8°F6.0°C 98% Calm Calm -- 29.22 in989.5 mb 0.00 in0.0 mm 0.00 in0.0 mm 1.58 in40.1 mm
10:43 PM 43.3°F6.3°C 42.8°F6.0°C 98% Calm Calm -- 29.22 in989.5 mb 0.00 in0.0 mm 0.00 in0.0 mm 1.58 in40.1 mm
10:44 PM 43.3°F6.3°C 42.8°F6.0°C 98% Calm Calm -- 29.22 in989.5 mb 0.00 in0.0 mm 0.00 in0.0 mm 1.58 in40.1 mm
10:45 PM 43.3°F6.3°C 42.8°F6.0°C 98% Calm Calm -- 29.22 in989.5 mb 0.00 in0.0 mm 0.00 in0.0 mm 1.58 in40.1 mm
10:46 PM 43.3°F6.3°C 42.8°F6.0°C 98% Calm Calm -- 29.22 in989.5 mb 0.00 in0.0 mm 0.00 in0.0 mm 1.58 in40.1 mm
10:47 PM 43.3°F6.3°C 42.8°F6.0°C 98% Calm Calm -- 29.22 in989.5 mb 0.00 in0.0 mm 0.00 in0.0 mm 1.58 in40.1 mm
10:48 PM 43.3°F6.3°C 42.8°F6.0°C 98% Calm Calm -- 29.22 in989.5 mb 0.00 in0.0 mm 0.00 in0.0 mm 1.58 in40.1 mm
10:49 PM 43.3°F6.3°C 42.8°F6.0°C 98% Calm Calm -- 29.22 in989.5 mb 0.00 in0.0 mm 0.00 in0.0 mm 1.58 in40.1 mm
10:50 PM 43.3°F6.3°C 42.8°F6.0°C 98% Calm Calm -- 29.22 in989.5 mb 0.00 in0.0 mm 0.00 in0.0 mm 1.58 in40.1 mm
10:51 PM 43.3°F6.3°C 42.8°F6.0°C 98% Calm Calm -- 29.22 in989.5 mb 0.00 in0.0 mm 0.00 in0.0 mm 1.58 in40.1 mm
10:52 PM 43.3°F6.3°C 42.8°F6.0°C 98% Calm Calm -- 29.23 in989.8 mb 0.00 in0.0 mm 0.00 in0.0 mm 1.58 in40.1 mm
10:53 PM 43.3°F6.3°C 42.8°F6.0°C 98% Calm Calm -- 29.23 in989.8 mb 0.00 in0.0 mm 0.00 in0.0 mm 1.58 in40.1 mm
10:54 PM 43.3°F6.3°C 42.8°F6.0°C 98% Calm Calm -- 29.23 in989.8 mb 0.00 in0.0 mm 0.00 in0.0 mm 1.58 in40.1 mm
10:55 PM 43.3°F6.3°C 42.8°F6.0°C 98% Calm Calm -- 29.23 in989.8 mb 0.00 in0.0 mm 0.00 in0.0 mm 1.58 in40.1 mm
10:56 PM 43.3°F6.3°C 42.8°F6.0°C 98% Calm Calm -- 29.23 in989.8 mb 0.00 in0.0 mm 0.00 in0.0 mm 1.58 in40.1 mm
10:57 PM 43.3°F6.3°C 42.8°F6.0°C 98% Calm Calm -- 29.23 in989.8 mb 0.00 in0.0 mm 0.00 in0.0 mm 1.58 in40.1 mm
10:58 PM 43.3°F6.3°C 42.8°F6.0°C 98% Calm Calm -- 29.23 in989.8 mb 0.00 in0.0 mm 0.00 in0.0 mm 1.58 in40.1 mm
10:59 PM 43.3°F6.3°C 42.8°F6.0°C 98% Calm Calm -- 29.23 in989.8 mb 0.00 in0.0 mm 0.00 in0.0 mm 1.58 in40.1 mm
11:00 PM 43.3°F6.3°C 42.8°F6.0°C 98% Calm Calm -- 29.23 in989.8 mb 0.00 in0.0 mm 0.00 in0.0 mm 1.58 in40.1 mm
11:01 PM 43.3°F6.3°C 42.8°F6.0°C 98% Calm Calm -- 29.23 in989.8 mb 0.00 in0.0 mm 0.00 in0.0 mm 1.58 in40.1 mm
11:02 PM 43.5°F6.4°C 43.0°F6.1°C 98% Calm Calm -- 29.23 in989.8 mb 0.00 in0.0 mm 0.00 in0.0 mm 1.58 in40.1 mm
11:03 PM 43.5°F6.4°C 43.0°F6.1°C 98% Calm Calm -- 29.23 in989.8 mb 0.00 in0.0 mm 0.00 in0.0 mm 1.58 in40.1 mm
11:04 PM 43.5°F6.4°C 43.0°F6.1°C 98% Calm Calm -- 29.23 in989.8 mb 0.00 in0.0 mm 0.00 in0.0 mm 1.58 in40.1 mm
11:05 PM 43.5°F6.4°C 43.0°F6.1°C 98% Calm Calm -- 29.23 in989.8 mb 0.00 in0.0 mm 0.00 in0.0 mm 1.58 in40.1 mm
11:06 PM 43.5°F6.4°C 43.0°F6.1°C 98% Calm Calm -- 29.23 in989.8 mb 0.00 in0.0 mm 0.00 in0.0 mm 1.58 in40.1 mm
11:07 PM 43.5°F6.4°C 43.0°F6.1°C 98% Calm Calm -- 29.23 in989.8 mb 0.00 in0.0 mm 0.00 in0.0 mm 1.58 in40.1 mm
11:08 PM 43.5°F6.4°C 43.0°F6.1°C 98% Calm Calm -- 29.23 in989.8 mb 0.00 in0.0 mm 0.00 in0.0 mm 1.58 in40.1 mm
11:09 PM 43.5°F6.4°C 43.0°F6.1°C 98% Calm Calm -- 29.23 in989.8 mb 0.00 in0.0 mm 0.00 in0.0 mm 1.58 in40.1 mm
11:10 PM 43.5°F6.4°C 43.0°F6.1°C 98% Calm Calm -- 29.23 in989.8 mb 0.00 in0.0 mm 0.00 in0.0 mm 1.58 in40.1 mm
11:11 PM 43.5°F6.4°C 43.0°F6.1°C 98% Calm Calm -- 29.23 in989.8 mb 0.00 in0.0 mm 0.00 in0.0 mm 1.58 in40.1 mm
11:12 PM 43.5°F6.4°C 43.0°F6.1°C 98% Calm Calm -- 29.23 in989.8 mb 0.00 in0.0 mm 0.00 in0.0 mm 1.58 in40.1 mm
11:13 PM 43.5°F6.4°C 43.0°F6.1°C 98% Calm Calm -- 29.23 in989.8 mb 0.00 in0.0 mm 0.00 in0.0 mm 1.58 in40.1 mm
11:14 PM 43.5°F6.4°C 43.0°F6.1°C 98% Calm Calm -- 29.23 in989.8 mb 0.00 in0.0 mm 0.00 in0.0 mm 1.58 in40.1 mm
11:15 PM 43.5°F6.4°C 43.0°F6.1°C 98% Calm Calm -- 29.23 in989.8 mb 0.00 in0.0 mm 0.00 in0.0 mm 1.58 in40.1 mm
11:16 PM 43.5°F6.4°C 43.0°F6.1°C 98% Calm Calm -- 29.23 in989.8 mb 0.00 in0.0 mm 0.00 in0.0 mm 1.58 in40.1 mm
11:17 PM 43.5°F6.4°C 43.0°F6.1°C 98% Calm Calm -- 29.23 in989.8 mb 0.00 in0.0 mm 0.00 in0.0 mm 1.58 in40.1 mm
11:18 PM 43.5°F6.4°C 43.0°F6.1°C 98% Calm Calm -- 29.23 in989.8 mb 0.00 in0.0 mm 0.00 in0.0 mm 1.58 in40.1 mm
11:19 PM 43.5°F6.4°C 43.0°F6.1°C 98% Calm Calm -- 29.23 in989.8 mb 0.00 in0.0 mm 0.00 in0.0 mm 1.58 in40.1 mm
11:20 PM 43.5°F6.4°C 43.0°F6.1°C 98% Calm Calm -- 29.23 in989.8 mb 0.00 in0.0 mm 0.00 in0.0 mm 1.58 in40.1 mm
11:21 PM 43.5°F6.4°C 43.0°F6.1°C 98% Calm Calm -- 29.23 in989.8 mb 0.00 in0.0 mm 0.00 in0.0 mm 1.58 in40.1 mm
11:22 PM 43.5°F6.4°C 43.0°F6.1°C 98% Calm Calm -- 29.23 in989.8 mb 0.00 in0.0 mm 0.00 in0.0 mm 1.58 in40.1 mm
11:23 PM 43.5°F6.4°C 43.0°F6.1°C 98% Calm Calm -- 29.23 in989.8 mb 0.00 in0.0 mm 0.00 in0.0 mm 1.58 in40.1 mm
11:24 PM 43.5°F6.4°C 43.0°F6.1°C 98% Calm Calm -- 29.23 in989.8 mb 0.00 in0.0 mm 0.00 in0.0 mm 1.58 in40.1 mm
11:25 PM 43.5°F6.4°C 43.0°F6.1°C 98% Calm Calm -- 29.23 in989.8 mb 0.00 in0.0 mm 0.00 in0.0 mm 1.58 in40.1 mm
11:26 PM 43.5°F6.4°C 43.0°F6.1°C 98% Calm Calm -- 29.23 in989.8 mb 0.00 in0.0 mm 0.00 in0.0 mm 1.58 in40.1 mm
11:27 PM 43.5°F6.4°C 43.0°F6.1°C 98% Calm Calm -- 29.22 in989.5 mb 0.00 in0.0 mm 0.00 in0.0 mm 1.58 in40.1 mm
11:28 PM 43.5°F6.4°C 43.0°F6.1°C 98% Calm Calm -- 29.22 in989.5 mb 0.00 in0.0 mm 0.00 in0.0 mm 1.58 in40.1 mm
11:29 PM 43.5°F6.4°C 43.0°F6.1°C 98% Calm Calm -- 29.22 in989.5 mb 0.00 in0.0 mm 0.00 in0.0 mm 1.58 in40.1 mm
11:30 PM 43.5°F6.4°C 43.0°F6.1°C 98% Calm Calm -- 29.22 in989.5 mb 0.00 in0.0 mm 0.00 in0.0 mm 1.58 in40.1 mm
11:31 PM 43.5°F6.4°C 43.0°F6.1°C 98% Calm Calm -- 29.22 in989.5 mb 0.00 in0.0 mm 0.00 in0.0 mm 1.58 in40.1 mm
11:32 PM 43.5°F6.4°C 43.0°F6.1°C 98% Calm Calm -- 29.22 in989.5 mb 0.00 in0.0 mm 0.00 in0.0 mm 1.58 in40.1 mm
11:33 PM 43.5°F6.4°C 43.0°F6.1°C 98% Calm Calm -- 29.22 in989.5 mb 0.00 in0.0 mm 0.00 in0.0 mm 1.58 in40.1 mm
11:34 PM 43.3°F6.3°C 42.8°F6.0°C 98% Calm Calm -- 29.22 in989.5 mb 0.00 in0.0 mm 0.00 in0.0 mm 1.58 in40.1 mm
11:35 PM 43.3°F6.3°C 42.8°F6.0°C 98% Calm Calm -- 29.22 in989.5 mb 0.00 in0.0 mm 0.00 in0.0 mm 1.58 in40.1 mm
11:36 PM 43.3°F6.3°C 42.8°F6.0°C 98% Calm Calm -- 29.22 in989.5 mb 0.00 in0.0 mm 0.00 in0.0 mm 1.58 in40.1 mm
11:37 PM 43.3°F6.3°C 42.8°F6.0°C 98% Calm Calm -- 29.22 in989.5 mb 0.00 in0.0 mm 0.00 in0.0 mm 1.58 in40.1 mm
11:38 PM 43.3°F6.3°C 42.8°F6.0°C 98% Calm Calm -- 29.22 in989.5 mb 0.00 in0.0 mm 0.00 in0.0 mm 1.58 in40.1 mm
11:39 PM 43.3°F6.3°C 42.8°F6.0°C 98% Calm Calm -- 29.23 in989.8 mb 0.00 in0.0 mm 0.00 in0.0 mm 1.58 in40.1 mm
11:40 PM 43.3°F6.3°C 42.8°F6.0°C 98% Calm Calm -- 29.23 in989.8 mb 0.00 in0.0 mm 0.00 in0.0 mm 1.58 in40.1 mm
11:41 PM 43.3°F6.3°C 42.8°F6.0°C 98% Calm Calm -- 29.23 in989.8 mb 0.00 in0.0 mm 0.00 in0.0 mm 1.58 in40.1 mm
11:42 PM 43.3°F6.3°C 42.8°F6.0°C 98% Calm Calm -- 29.23 in989.8 mb 0.00 in0.0 mm 0.00 in0.0 mm 1.58 in40.1 mm
11:43 PM 43.3°F6.3°C 42.8°F6.0°C 98% Calm Calm -- 29.23 in989.8 mb 0.00 in0.0 mm 0.00 in0.0 mm 1.58 in40.1 mm
11:44 PM 43.3°F6.3°C 42.8°F6.0°C 98% Calm Calm -- 29.23 in989.8 mb 0.00 in0.0 mm 0.00 in0.0 mm 1.58 in40.1 mm
11:45 PM 43.3°F6.3°C 42.8°F6.0°C 98% Calm Calm -- 29.23 in989.8 mb 0.00 in0.0 mm 0.00 in0.0 mm 1.58 in40.1 mm
11:46 PM 43.3°F6.3°C 42.8°F6.0°C 98% Calm Calm -- 29.23 in989.8 mb 0.00 in0.0 mm 0.00 in0.0 mm 1.58 in40.1 mm
11:47 PM 43.3°F6.3°C 42.8°F6.0°C 98% Calm Calm -- 29.23 in989.8 mb 0.00 in0.0 mm 0.00 in0.0 mm 1.58 in40.1 mm
11:48 PM 43.3°F6.3°C 42.8°F6.0°C 98% Calm Calm -- 29.23 in989.8 mb 0.00 in0.0 mm 0.00 in0.0 mm 1.58 in40.1 mm
11:49 PM 43.3°F6.3°C 42.8°F6.0°C 98% Calm Calm -- 29.23 in989.8 mb 0.00 in0.0 mm 0.00 in0.0 mm 1.58 in40.1 mm
11:50 PM 43.3°F6.3°C 42.8°F6.0°C 98% Calm Calm -- 29.23 in989.8 mb 0.00 in0.0 mm 0.00 in0.0 mm 1.58 in40.1 mm
11:51 PM 43.3°F6.3°C 42.8°F6.0°C 98% Calm Calm -- 29.23 in989.8 mb 0.00 in0.0 mm 0.00 in0.0 mm 1.58 in40.1 mm
11:52 PM 43.3°F6.3°C 42.8°F6.0°C 98% Calm Calm -- 29.23 in989.8 mb 0.00 in0.0 mm 0.00 in0.0 mm 1.58 in40.1 mm
11:53 PM 43.3°F6.3°C 42.8°F6.0°C 98% Calm Calm -- 29.23 in989.8 mb 0.00 in0.0 mm 0.00 in0.0 mm 1.58 in40.1 mm
11:54 PM 43.3°F6.3°C 42.8°F6.0°C 98% Calm Calm -- 29.23 in989.8 mb 0.00 in0.0 mm 0.00 in0.0 mm 1.58 in40.1 mm
11:55 PM 43.3°F6.3°C 42.8°F6.0°C 98% Calm Calm -- 29.23 in989.8 mb 0.00 in0.0 mm 0.00 in0.0 mm 1.58 in40.1 mm
11:56 PM 43.3°F6.3°C 42.8°F6.0°C 98% Calm Calm -- 29.23 in989.8 mb 0.00 in0.0 mm 0.00 in0.0 mm 1.58 in40.1 mm
11:57 PM 43.3°F6.3°C 42.8°F6.0°C 98% Calm Calm -- 29.23 in989.8 mb 0.00 in0.0 mm 0.00 in0.0 mm 1.58 in40.1 mm
11:58 PM 43.3°F6.3°C 42.8°F6.0°C 98% Calm Calm -- 29.23 in989.8 mb 0.00 in0.0 mm 0.00 in0.0 mm 1.58 in40.1 mm
11:59 PM 43.3°F6.3°C 42.8°F6.0°C 98% Calm Calm -- 29.23 in989.8 mb 0.00 in0.0 mm 0.00 in0.0 mm 1.58 in40.1 mm